Terminal Aerodrome Forecast
Issued by NWS Corpus Christi, TX

Home | Current Version | Previous Version | Text Only | Print | Product List | Glossary On
Versions: 1 2 3 4 5 6 7 8 9 10 11 12 13 14 15 16 17 18 19
863
FTUS44 KCRP 232335
TAFVCT
TAF
KVCT 232335Z 2400/2424 13011KT P6SM SCT050 SCT100
     FM240700 09004KT 4SM BR SCT015
      TEMPO 2409/2413 1SM BR BKN012
     FM241400 10011KT P6SM VCSH SCT025=

USA.gov is the U.S. government's official web portal to all federal, state and local government web resources and services.